createdAt,value
2017-10-18T00:01:59.379Z,32.37
2017-10-18T00:04:33.826Z,32.60
2017-10-18T00:07:08.428Z,35.70
2017-10-18T00:09:42.563Z,35.40
2017-10-18T00:12:16.916Z,35.60
2017-10-18T00:14:51.526Z,32.53
2017-10-18T00:17:25.852Z,38.40
2017-10-18T00:20:00.378Z,32.63
2017-10-18T00:22:34.683Z,31.97
2017-10-18T00:25:09.187Z,28.63
2017-10-18T00:27:43.554Z,33.00
2017-10-18T00:30:17.914Z,34.53
2017-10-18T00:32:52.622Z,36.13
2017-10-18T00:35:27.169Z,41.57
2017-10-18T00:38:01.703Z,39.60
2017-10-18T00:40:36.925Z,35.40
2017-10-18T00:43:11.615Z,36.27
2017-10-18T00:45:46.123Z,49.67
2017-10-18T00:48:20.633Z,46.93
2017-10-18T00:50:55.105Z,42.03
2017-10-18T00:53:29.823Z,40.20
2017-10-18T00:56:04.439Z,35.10
2017-10-18T00:58:38.800Z,36.20
2017-10-18T01:01:13.370Z,40.70
2017-10-18T01:03:47.988Z,38.90
2017-10-18T01:06:22.558Z,50.30
2017-10-18T01:08:57.092Z,36.83
2017-10-18T01:11:31.698Z,36.57
2017-10-18T01:14:06.370Z,40.50
2017-10-18T01:16:41.051Z,45.30
2017-10-18T01:19:15.654Z,39.20
2017-10-18T01:21:50.166Z,40.13
2017-10-18T01:24:24.835Z,41.97
2017-10-18T01:26:59.411Z,42.57
2017-10-18T01:29:33.943Z,39.23
2017-10-18T01:32:08.482Z,40.27
2017-10-18T01:34:42.994Z,48.93
2017-10-18T01:37:17.555Z,45.27
2017-10-18T01:39:51.957Z,46.00
2017-10-18T01:42:26.542Z,45.80
2017-10-18T01:45:01.207Z,51.03
2017-10-18T01:47:35.816Z,53.47
2017-10-18T01:50:10.290Z,47.40
2017-10-18T01:52:44.947Z,51.40
2017-10-18T01:55:19.515Z,50.10
2017-10-18T01:57:54.032Z,50.93
2017-10-18T02:00:28.554Z,49.73
2017-10-18T02:03:03.203Z,56.43
2017-10-18T02:05:37.778Z,54.83
2017-10-18T02:08:12.221Z,45.87
2017-10-18T02:10:46.892Z,52.53
2017-10-18T02:13:21.475Z,53.93
2017-10-18T02:15:56.024Z,53.77
2017-10-18T02:18:30.622Z,56.90
2017-10-18T02:37:00.297Z,47.53
2017-10-18T02:39:34.934Z,51.57
2017-10-18T02:42:09.592Z,53.40
2017-10-18T02:44:44.105Z,50.60
2017-10-18T02:47:19.452Z,52.20
2017-10-18T02:49:53.948Z,50.40
2017-10-18T02:52:28.485Z,51.00
2017-10-18T02:55:08.486Z,47.90
2017-10-18T02:57:42.904Z,47.80
2017-10-18T03:00:18.208Z,49.70
2017-10-18T03:02:52.923Z,45.10
2017-10-18T03:05:27.526Z,42.40
2017-10-18T03:08:02.073Z,50.93
2017-10-18T03:10:36.578Z,45.80
2017-10-18T03:13:11.093Z,47.17
2017-10-18T03:15:45.725Z,48.60
2017-10-18T03:18:20.262Z,51.33
2017-10-18T03:20:54.911Z,53.43
2017-10-18T03:23:29.356Z,50.80
2017-10-18T03:26:02.977Z,48.73
2017-10-18T03:28:37.313Z,49.07
2017-10-18T03:31:11.852Z,50.80
2017-10-18T03:33:46.448Z,56.47
2017-10-18T03:36:21.046Z,52.77
2017-10-18T03:38:56.345Z,56.77
2017-10-18T03:41:30.821Z,54.63
2017-10-18T03:44:05.334Z,61.07
2017-10-18T03:46:39.918Z,55.87
2017-10-18T03:49:14.386Z,60.60
2017-10-18T03:51:48.927Z,57.20
2017-10-18T03:54:23.534Z,57.73
2017-10-18T03:56:58.173Z,57.67
2017-10-18T03:59:32.786Z,62.93
2017-10-18T04:02:07.414Z,61.80
2017-10-18T04:04:42.030Z,74.50
2017-10-18T04:07:16.553Z,61.50
2017-10-18T04:09:51.155Z,70.33
2017-10-18T04:12:25.710Z,66.13
2017-10-18T04:15:00.178Z,71.30
2017-10-18T04:17:34.733Z,62.83
2017-10-18T04:20:09.286Z,75.70
2017-10-18T04:22:43.789Z,63.17
2017-10-18T04:25:18.438Z,62.60
2017-10-18T04:27:53.033Z,58.13
2017-10-18T04:30:27.574Z,60.53
2017-10-18T04:33:02.147Z,57.70
2017-10-18T04:35:36.431Z,70.73
2017-10-18T04:38:11.618Z,59.70
2017-10-18T04:40:46.177Z,70.33
2017-10-18T04:43:20.658Z,60.40
2017-10-18T04:45:55.240Z,71.13
2017-10-18T04:48:29.938Z,75.57
2017-10-18T04:51:04.442Z,72.93
2017-10-18T04:53:39.496Z,62.80
2017-10-18T04:56:14.099Z,69.90
2017-10-18T04:58:48.562Z,67.07
2017-10-18T05:01:23.858Z,65.57
2017-10-18T05:03:58.426Z,69.73
2017-10-18T05:06:33.046Z,77.10
2017-10-18T05:09:07.536Z,67.10
2017-10-18T05:11:42.107Z,74.90
2017-10-18T05:14:16.809Z,73.83
2017-10-18T05:16:51.169Z,80.50
2017-10-18T05:19:25.493Z,82.10
2017-10-18T05:21:59.114Z,68.33
2017-10-18T05:24:33.630Z,78.50
2017-10-18T05:27:08.171Z,67.97
2017-10-18T05:29:42.817Z,76.43
2017-10-18T05:32:17.326Z,100.70
2017-10-18T05:34:51.935Z,73.63
2017-10-18T05:37:26.451Z,83.17
2017-10-18T05:40:00.893Z,72.40
2017-10-18T05:42:35.465Z,74.37
2017-10-18T05:45:13.794Z,75.73
2017-10-18T05:47:48.397Z,62.30
2017-10-18T05:50:22.909Z,73.67
2017-10-18T05:52:57.333Z,76.67
2017-10-18T05:55:33.622Z,70.03
2017-10-18T05:58:08.259Z,75.40
2017-10-18T06:00:42.732Z,78.77
2017-10-18T06:03:17.389Z,73.37
2017-10-18T06:05:57.913Z,70.63
2017-10-18T06:08:32.513Z,68.23
2017-10-18T06:11:07.147Z,78.23
2017-10-18T06:13:41.816Z,89.90
2017-10-18T06:16:16.354Z,63.70
2017-10-18T06:18:50.589Z,64.93
2017-10-18T06:21:25.138Z,67.57
2017-10-18T06:23:59.417Z,65.17
2017-10-18T06:26:33.917Z,69.80
2017-10-18T06:29:08.435Z,90.20
2017-10-18T06:31:42.985Z,70.80
2017-10-18T06:34:17.409Z,69.13
2017-10-18T06:36:52.045Z,75.83
2017-10-18T06:39:26.657Z,66.40
2017-10-18T06:42:01.977Z,79.30
2017-10-18T06:44:36.526Z,73.43
2017-10-18T06:47:11.105Z,80.30
2017-10-18T06:49:45.744Z,78.13
2017-10-18T06:52:20.386Z,76.10
2017-10-18T06:54:54.833Z,81.57
2017-10-18T06:57:29.326Z,85.03
2017-10-18T07:00:07.516Z,69.77
2017-10-18T07:02:42.117Z,81.93
2017-10-18T07:05:16.654Z,69.60
2017-10-18T07:07:51.331Z,72.47
2017-10-18T07:10:25.973Z,63.70
2017-10-18T07:13:00.659Z,64.50
2017-10-18T07:15:36.026Z,61.70
2017-10-18T07:18:10.654Z,78.30
2017-10-18T07:20:45.337Z,67.73
2017-10-18T07:23:19.926Z,69.97
2017-10-18T07:25:54.485Z,56.30
2017-10-18T07:28:28.983Z,70.73
2017-10-18T07:31:03.538Z,58.57
2017-10-18T07:33:38.154Z,65.47
2017-10-18T07:36:12.599Z,71.27
2017-10-18T07:38:47.029Z,67.13
2017-10-18T07:41:21.406Z,61.37
2017-10-18T07:43:56.114Z,69.97
2017-10-18T07:46:30.618Z,62.43
2017-10-18T07:49:05.161Z,57.87
2017-10-18T07:51:39.838Z,58.00
2017-10-18T07:54:15.078Z,51.50
2017-10-18T07:56:49.547Z,53.77
2017-10-18T07:59:24.021Z,57.93
2017-10-18T08:01:58.559Z,50.47
2017-10-18T08:04:33.234Z,52.07
2017-10-18T08:07:07.713Z,47.20
2017-10-18T08:09:42.182Z,47.73
2017-10-18T08:12:16.704Z,50.10
2017-10-18T08:14:51.386Z,75.33
2017-10-18T08:17:26.022Z,71.23
2017-10-18T08:20:00.221Z,75.53
2017-10-18T08:22:34.541Z,91.47
2017-10-18T08:25:10.215Z,74.90
2017-10-18T08:27:44.722Z,80.20
2017-10-18T08:30:19.330Z,57.47
2017-10-18T08:32:54.054Z,64.40
2017-10-18T08:35:28.693Z,68.73
2017-10-18T08:38:03.490Z,62.27
2017-10-18T08:40:37.738Z,58.50
2017-10-18T08:43:12.374Z,68.60
2017-10-18T08:45:47.698Z,71.23
2017-10-18T08:48:22.138Z,86.47
2017-10-18T08:50:56.680Z,72.03
2017-10-18T08:53:31.447Z,80.93
2017-10-18T08:56:05.902Z,72.80
2017-10-18T08:58:40.544Z,80.90
2017-10-18T09:01:14.362Z,72.10
2017-10-18T09:03:48.930Z,64.47
2017-10-18T09:06:23.463Z,70.33
2017-10-18T09:08:58.125Z,81.27
2017-10-18T09:11:32.502Z,65.17
2017-10-18T09:14:06.793Z,62.53
2017-10-18T09:16:41.371Z,50.93
2017-10-18T09:19:15.880Z,58.40
2017-10-18T09:21:50.502Z,53.47
2017-10-18T09:24:25.039Z,47.60
2017-10-18T09:26:59.652Z,45.50
2017-10-18T09:29:34.243Z,48.27
2017-10-18T09:32:08.805Z,40.33
2017-10-18T09:34:43.370Z,35.30
2017-10-18T09:37:17.994Z,33.30
2017-10-18T09:39:52.619Z,36.10
2017-10-18T09:42:26.997Z,28.90
2017-10-18T09:45:01.454Z,27.80
2017-10-18T09:47:36.025Z,35.80
2017-10-18T09:50:10.605Z,37.77
2017-10-18T09:52:45.319Z,25.63
2017-10-18T09:55:19.873Z,27.63
2017-10-18T09:57:54.530Z,30.30
2017-10-18T10:00:28.708Z,26.53
2017-10-18T10:03:03.214Z,54.77
2017-10-18T10:05:37.769Z,42.40
2017-10-18T10:08:12.390Z,44.87
2017-10-18T10:10:46.710Z,34.83
2017-10-18T10:13:21.192Z,36.70
2017-10-18T10:15:55.530Z,31.30
2017-10-18T10:18:30.054Z,49.93
2017-10-18T10:21:04.646Z,54.63
2017-10-18T10:23:39.089Z,43.53
2017-10-18T10:26:13.652Z,47.10
2017-10-18T10:28:48.196Z,37.77
2017-10-18T10:31:22.642Z,52.60
2017-10-18T10:33:57.102Z,35.97
2017-10-18T10:36:31.601Z,52.43
2017-10-18T10:39:05.934Z,37.93
2017-10-18T10:41:40.578Z,36.63
2017-10-18T10:44:15.232Z,40.23
2017-10-18T10:46:49.861Z,32.13
2017-10-18T10:49:24.437Z,37.83
2017-10-18T10:51:59.065Z,33.50
2017-10-18T10:54:33.695Z,28.97
2017-10-18T10:57:09.013Z,28.60
2017-10-18T10:59:43.919Z,27.90
2017-10-18T11:02:18.378Z,34.07
2017-10-18T11:04:52.827Z,28.70
2017-10-18T11:07:27.386Z,29.40
2017-10-18T11:10:02.122Z,28.37
2017-10-18T11:12:37.630Z,29.63
2017-10-18T11:15:12.138Z,23.10
2017-10-18T11:17:47.349Z,34.23
2017-10-18T11:20:21.838Z,26.43
2017-10-18T11:22:56.158Z,22.90
2017-10-18T11:25:30.478Z,29.33
2017-10-18T11:28:05.090Z,29.40
2017-10-18T11:30:39.716Z,23.43
2017-10-18T11:33:14.306Z,28.37
2017-10-18T11:35:48.823Z,31.57
2017-10-18T11:38:24.142Z,23.53
2017-10-18T11:40:58.614Z,22.63
2017-10-18T11:43:33.070Z,26.03
2017-10-18T11:46:07.684Z,22.80
2017-10-18T11:48:42.326Z,27.83
2017-10-18T11:51:16.929Z,25.63
2017-10-18T11:53:51.609Z,20.87
2017-10-18T11:56:26.070Z,22.67
2017-10-18T11:59:00.597Z,22.00
2017-10-18T12:01:35.147Z,18.97
2017-10-18T12:04:09.593Z,20.37
2017-10-18T12:06:44.212Z,18.27
2017-10-18T12:09:18.765Z,38.30
2017-10-18T12:11:53.325Z,16.43
2017-10-18T12:14:27.923Z,17.83
2017-10-18T12:17:02.406Z,18.50
2017-10-18T12:19:36.833Z,19.97
2017-10-18T12:22:11.458Z,16.10
2017-10-18T12:24:46.030Z,15.47
2017-10-18T12:27:20.518Z,17.20
2017-10-18T12:29:55.061Z,18.63
2017-10-18T12:32:29.657Z,18.30
2017-10-18T12:35:05.918Z,18.67
2017-10-18T12:37:40.562Z,22.73
2017-10-18T12:40:15.135Z,29.43
2017-10-18T12:42:49.789Z,23.93
2017-10-18T12:45:24.399Z,25.73
2017-10-18T12:47:59.281Z,25.57
2017-10-18T12:50:33.766Z,25.30
2017-10-18T12:53:08.418Z,29.50
2017-10-18T12:55:42.981Z,26.73
2017-10-18T12:58:17.407Z,25.90
2017-10-18T13:00:51.894Z,30.13
2017-10-18T13:03:26.397Z,27.30
2017-10-18T13:06:00.953Z,39.87
2017-10-18T13:08:35.374Z,30.60
2017-10-18T13:11:10.004Z,27.90
2017-10-18T13:13:44.747Z,40.97
2017-10-18T13:16:19.303Z,45.77
2017-10-18T13:18:53.963Z,44.47
2017-10-18T13:21:28.678Z,34.70
2017-10-18T13:24:03.218Z,44.73
2017-10-18T13:26:38.758Z,39.90
2017-10-18T13:29:13.261Z,38.93
2017-10-18T13:31:47.836Z,40.10
2017-10-18T13:34:23.238Z,44.73
2017-10-18T13:36:57.910Z,32.03
2017-10-18T13:39:32.716Z,44.33
2017-10-18T13:42:07.151Z,46.97
2017-10-18T13:44:41.797Z,38.83
2017-10-18T13:47:16.354Z,37.83
2017-10-18T13:49:50.786Z,34.03
2017-10-18T13:52:25.406Z,41.93
2017-10-18T13:54:59.881Z,32.53
2017-10-18T13:57:34.509Z,38.30
2017-10-18T14:00:11.828Z,27.90
2017-10-18T14:02:46.245Z,33.73
2017-10-18T14:05:20.823Z,42.93
2017-10-18T14:07:55.194Z,35.80
2017-10-18T14:10:29.753Z,36.50
2017-10-18T14:13:04.197Z,31.93
2017-10-18T14:15:38.697Z,32.60
2017-10-18T14:18:13.262Z,40.67
2017-10-18T14:20:47.834Z,30.60
2017-10-18T14:23:22.311Z,33.03
2017-10-18T14:25:56.830Z,36.63
2017-10-18T14:28:32.222Z,45.37
2017-10-18T14:31:06.774Z,29.60
2017-10-18T14:33:41.998Z,36.40
2017-10-18T14:36:17.366Z,47.63
2017-10-18T14:38:51.857Z,30.77
2017-10-18T14:41:26.498Z,43.17
2017-10-18T14:44:01.123Z,47.80
2017-10-18T14:46:35.725Z,36.73
2017-10-18T14:49:10.376Z,42.53
2017-10-18T14:51:44.865Z,47.50
2017-10-18T14:54:19.566Z,33.90
2017-10-18T14:56:54.142Z,43.90
2017-10-18T14:59:28.587Z,45.03
2017-10-18T15:02:02.985Z,35.90
2017-10-18T15:04:37.425Z,49.23
2017-10-18T15:07:12.050Z,37.10
2017-10-18T15:09:46.650Z,52.77
2017-10-18T15:12:21.314Z,29.93
2017-10-18T15:14:55.790Z,41.03
2017-10-18T15:17:30.350Z,34.80
2017-10-18T15:20:08.930Z,33.80
2017-10-18T15:22:43.472Z,35.37
2017-10-18T15:25:18.857Z,33.53
2017-10-18T15:27:53.342Z,32.43
2017-10-18T15:30:27.794Z,38.67
2017-10-18T15:33:02.414Z,42.10
2017-10-18T15:35:37.041Z,46.80
2017-10-18T15:38:11.710Z,41.70
2017-10-18T15:40:46.226Z,47.83
2017-10-18T15:43:21.698Z,48.37
2017-10-18T15:45:56.169Z,49.47
2017-10-18T15:48:30.683Z,43.67
2017-10-18T15:51:05.235Z,38.93
2017-10-18T15:53:40.011Z,36.70
2017-10-18T15:56:14.758Z,41.73
2017-10-18T15:58:50.097Z,45.53
2017-10-18T16:01:24.678Z,42.77
2017-10-18T16:03:59.233Z,44.93
2017-10-18T16:06:33.860Z,39.27
2017-10-18T16:09:08.381Z,36.93
2017-10-18T16:11:42.941Z,34.40
2017-10-18T16:14:17.485Z,41.07
2017-10-18T16:16:52.026Z,48.33
2017-10-18T16:19:27.478Z,40.93
2017-10-18T16:22:01.926Z,54.43
2017-10-18T16:24:36.569Z,39.20
2017-10-18T16:27:11.237Z,78.77
2017-10-18T16:29:45.861Z,44.00
2017-10-18T16:32:20.362Z,52.93
2017-10-18T16:34:54.857Z,57.73
2017-10-18T16:37:29.462Z,51.27
2017-10-18T16:40:04.030Z,45.07
2017-10-18T16:42:39.754Z,38.60
2017-10-18T16:45:14.232Z,55.40
2017-10-18T16:47:48.843Z,47.23
2017-10-18T16:50:23.162Z,67.87
2017-10-18T16:52:57.713Z,45.20
2017-10-18T16:55:32.410Z,42.70
2017-10-18T16:58:06.940Z,39.70
2017-10-18T17:00:41.477Z,49.40
2017-10-18T17:03:16.060Z,57.17
2017-10-18T17:05:50.636Z,49.50
2017-10-18T17:08:25.147Z,54.57
2017-10-18T17:10:59.754Z,53.27
2017-10-18T17:13:34.277Z,61.60
2017-10-18T17:16:08.865Z,48.83
2017-10-18T17:18:43.501Z,49.83
2017-10-18T17:21:17.990Z,44.37
2017-10-18T17:23:52.429Z,48.07
2017-10-18T17:26:27.026Z,55.33
2017-10-18T17:29:01.491Z,56.13
2017-10-18T17:31:36.158Z,54.10
2017-10-18T17:34:10.867Z,62.43
2017-10-18T17:36:45.378Z,51.80
2017-10-18T17:39:19.891Z,46.87
2017-10-18T17:41:54.621Z,68.50
2017-10-18T17:44:28.926Z,56.20
2017-10-18T17:47:03.289Z,56.60
2017-10-18T17:49:37.947Z,59.50
2017-10-18T17:52:12.434Z,54.47
2017-10-18T17:54:47.022Z,62.93
2017-10-18T17:57:21.614Z,69.27
2017-10-18T17:59:56.128Z,65.53
2017-10-18T18:02:30.454Z,54.50
2017-10-18T18:05:12.627Z,61.70
2017-10-18T18:07:47.085Z,63.33
2017-10-18T18:10:21.669Z,57.47
2017-10-18T18:12:56.105Z,59.23
2017-10-18T18:15:30.659Z,57.37
2017-10-18T18:18:04.930Z,62.73
2017-10-18T18:20:39.482Z,53.50
2017-10-18T18:23:13.925Z,57.17
2017-10-18T18:25:49.285Z,58.43
2017-10-18T18:28:24.047Z,58.67
2017-10-18T18:30:58.511Z,57.50
2017-10-18T18:33:32.994Z,56.47
2017-10-18T18:36:07.571Z,59.00
2017-10-18T18:38:42.017Z,57.63
2017-10-18T18:41:16.359Z,63.70
2017-10-18T18:43:50.910Z,58.53
2017-10-18T18:46:25.453Z,69.03
2017-10-18T18:49:00.082Z,59.40
2017-10-18T18:51:34.678Z,55.77
2017-10-18T18:54:09.996Z,59.13
2017-10-18T18:56:44.583Z,55.77
2017-10-18T18:59:19.194Z,63.83
2017-10-18T19:01:53.804Z,62.17
2017-10-18T19:04:28.389Z,66.83
2017-10-18T19:07:02.930Z,69.80
2017-10-18T19:09:38.143Z,75.47
2017-10-18T19:12:12.610Z,57.80
2017-10-18T19:14:47.185Z,64.40
2017-10-18T19:17:21.791Z,64.93
2017-10-18T19:19:56.200Z,77.63
2017-10-18T19:22:31.407Z,61.07
2017-10-18T19:25:12.842Z,66.60
2017-10-18T19:27:47.487Z,70.00
2017-10-18T19:30:22.010Z,68.03
2017-10-18T19:32:57.345Z,71.40
2017-10-18T19:35:31.965Z,77.07
2017-10-18T19:38:06.498Z,84.40
2017-10-18T19:40:40.998Z,68.40
2017-10-18T19:43:15.654Z,77.77
2017-10-18T19:45:50.315Z,87.90
2017-10-18T19:48:24.886Z,86.57
2017-10-18T19:50:59.510Z,85.37
2017-10-18T19:53:34.153Z,74.93
2017-10-18T19:56:08.804Z,75.70
2017-10-18T19:58:43.378Z,84.67
2017-10-18T20:01:18.113Z,91.40
2017-10-18T20:03:52.791Z,75.87
2017-10-18T20:06:27.346Z,81.50
2017-10-18T20:09:01.926Z,72.33
2017-10-18T20:11:36.530Z,99.00
2017-10-18T20:14:11.180Z,74.93
2017-10-18T20:16:45.738Z,98.80
2017-10-18T20:19:20.211Z,85.63
2017-10-18T20:21:54.833Z,71.10
2017-10-18T20:24:29.354Z,80.13
2017-10-18T20:27:03.937Z,74.10
2017-10-18T20:29:38.494Z,82.03
2017-10-18T20:32:14.058Z,82.10
2017-10-18T20:34:48.586Z,77.10
2017-10-18T20:37:23.194Z,72.20
2017-10-18T20:39:57.777Z,76.80
2017-10-18T20:42:32.273Z,73.53
2017-10-18T20:45:15.889Z,78.30
2017-10-18T20:47:50.140Z,73.27
2017-10-18T20:50:24.473Z,80.40
2017-10-18T20:52:59.174Z,74.87
2017-10-18T20:55:33.785Z,76.63
2017-10-18T20:58:08.543Z,68.90
2017-10-18T21:00:43.128Z,80.20
2017-10-18T21:03:17.574Z,77.67
2017-10-18T21:05:52.114Z,70.37
2017-10-18T21:08:26.521Z,78.20
2017-10-18T21:11:00.988Z,76.83
2017-10-18T21:13:35.631Z,74.37
2017-10-18T21:16:09.998Z,77.30
2017-10-18T21:18:44.617Z,70.87
2017-10-18T21:21:19.170Z,68.73
2017-10-18T21:23:53.781Z,69.40
2017-10-18T21:26:28.370Z,80.67
2017-10-18T21:29:02.866Z,68.97
2017-10-18T21:31:37.202Z,79.57
2017-10-18T21:34:11.903Z,75.87
2017-10-18T21:36:46.522Z,111.47
2017-10-18T21:39:20.737Z,87.80
2017-10-18T21:41:55.260Z,72.67
2017-10-18T21:44:29.936Z,71.53
2017-10-18T21:47:04.582Z,71.07
2017-10-18T21:49:40.015Z,81.00
2017-10-18T21:52:15.452Z,65.77
2017-10-18T21:54:49.958Z,76.17
2017-10-18T21:57:24.587Z,74.77
2017-10-18T21:59:59.129Z,83.10
2017-10-18T22:02:33.737Z,75.20
2017-10-18T22:05:08.287Z,66.43
2017-10-18T22:07:42.907Z,64.60
2017-10-18T22:10:17.438Z,81.77
2017-10-18T22:12:52.130Z,79.83
2017-10-18T22:15:26.674Z,82.13
2017-10-18T22:18:01.182Z,86.00
2017-10-18T22:20:35.510Z,69.10
2017-10-18T22:23:10.930Z,76.27
2017-10-18T22:25:45.614Z,77.20
2017-10-18T22:28:20.350Z,82.17
2017-10-18T22:30:54.857Z,75.60
2017-10-18T22:33:29.458Z,72.53
2017-10-18T22:36:04.026Z,99.10
2017-10-18T22:38:38.614Z,79.43
2017-10-18T22:41:13.858Z,78.13
2017-10-18T22:43:48.497Z,83.20
2017-10-18T22:46:23.130Z,98.00
2017-10-18T22:48:57.761Z,102.43
2017-10-18T22:51:32.279Z,109.63
2017-10-18T22:54:07.770Z,110.87
2017-10-18T22:56:42.254Z,104.17
2017-10-18T22:59:16.889Z,111.70
2017-10-18T23:01:51.453Z,111.27
2017-10-18T23:04:26.118Z,107.53
2017-10-18T23:07:00.792Z,110.53
2017-10-18T23:09:35.423Z,143.87
2017-10-18T23:12:10.017Z,112.57
2017-10-18T23:14:44.582Z,111.80
2017-10-18T23:17:19.354Z,102.30
2017-10-18T23:19:53.825Z,108.80
2017-10-18T23:22:28.544Z,101.93
2017-10-18T23:25:03.238Z,100.97
2017-10-18T23:27:37.773Z,99.97
2017-10-18T23:30:12.402Z,108.47
2017-10-18T23:32:46.940Z,112.43
2017-10-18T23:35:21.517Z,108.27
2017-10-18T23:37:55.979Z,112.90
2017-10-18T23:40:30.537Z,103.23
2017-10-18T23:43:05.062Z,110.27
2017-10-18T23:45:39.631Z,116.93
2017-10-18T23:48:14.273Z,112.23
2017-10-18T23:50:48.766Z,99.20
2017-10-18T23:53:24.173Z,119.60
2017-10-18T23:55:58.665Z,116.80
2017-10-18T23:58:33.199Z,115.60
